Airfield :
LOGIN :

Register | Disclaimer

   EN    FR    IT 

 










Legend :    VFR   Marginal VFR   IFR   Intensive IFR   Very Intensive IFR
Visi :
Ceiling :
>= 8 km
>= 3000ft
5 to 8 km
1000 to 3000 ft
1500m to 5 km
500 to 1000 ft
800 to 1500m
200 to 500 ft
< 800m
< 200 ft
Symbols :   Thunderstorms  Fog  Heavy snow  Heavy precipitations  Wind > 20 kt
SIGMETs :     Misc.  Thunderstorms  Icing  Turbulence  Mountain Waves  Volcanic Ashes






- Airport Elevation : 141 ft
- IATA code : SKS


EKSP - Srydstrup Vojens

CURRENT METAR :
  • 272320Z 21007KT 7000 -SHRA BKN004 BKN016CB 01/01 Q1000

EXPIRED METARs :
  • 272308Z 20008KT 6000 -SHRA SCT008 BKN016CB 01/00 Q1000
  • 272250Z 20007KT 8000 -SHRA FEW005 SCT016CB BKN030 01/00 Q1000
  • 272220Z 21008KT 7000 -SHRA SCT005 SCT016CB BKN030 01/00 Q1000
  • 272150Z 22010KT 6000 -SHRASN SCT005 SCT020CB BKN030 01/M00 Q1000
  • 272140Z 22011KT 7000 -SHRASN SCT005 BKN020CB 01/00 Q1000
  • 272120Z 21008KT 9999 SCT020 BKN180 01/00 Q1000

TAF TAF EKSP
Valid from the 28 at 00:00 until the 29 at 00:00 UTC


272304Z 2800/2824 21010KT 9999 BKN020
TEMPO 2800/2805 2500 SHRASN BR BKN004 BKN012CB
BECMG 2802/2804 27012KT
TEMPO 2809/2816 27015G25KT
BECMG 2816/2818 20008KT
BECMG 2822/2824 15012G22KT 5000 RA



MET'MAP, your aeronautical weather chart ! - Copyright ORBIFLY December 2007 - Disclaimer

ORBIFLY MET'MAP TEAM :

Programming & Development : Alexandra Zaïnal
Concept & original design : Baudouin d'Aumeries
Assistance for programming : Marc-Olivier Méhu
Technical & hardware support : Manuel Goepfert

Contact : metmap@orbifly.com




SOURCES & CREDITS :

   NOAA